Time;durP1;ratioP1;P1;durP2;ratioP2;P2;SDS_P1;SDS_P2;PMS_P1;PMS_P2;Temp;Humidity;BMP_temperature;BMP_pressure;BME280_temperature;BME280_humidity;BME280_pressure;Samples;Min_cycle;Max_cycle;Signal;HPM_P1;HPM_P2
2023/05/06 00:00:28;;;;;;;13.10;11.30;;;;;;;11.78;67.82;94762.06;4223583;28;20054;-61
2023/05/06 00:02:30;;;;;;;13.23;11.63;;;;;;;11.88;67.46;94752.25;4218477;28;20048;-60
2023/05/06 00:04:32;;;;;;;13.43;11.43;;;;;;;11.95;66.92;94757.66;4210795;28;20086;-59
2023/05/06 00:06:33;;;;;;;12.88;10.70;;;;;;;11.98;66.60;94762.56;4211068;28;20044;-60
2023/05/06 00:08:35;;;;;;;15.68;11.07;;;;;;;12.04;66.34;94767.16;4212090;28;20091;-59
2023/05/06 00:10:37;;;;;;;14.57;11.57;;;;;;;12.07;66.45;94757.16;4210487;28;20561;-60
2023/05/06 00:12:38;;;;;;;14.32;11.32;;;;;;;12.08;66.38;94758.78;4213269;28;20128;-60
2023/05/06 00:14:40;;;;;;;12.50;11.20;;;;;;;12.10;66.25;94756.00;4210600;28;20044;-60
2023/05/06 00:16:41;;;;;;;15.90;11.25;;;;;;;12.11;66.22;94759.44;4218944;28;20457;-59
2023/05/06 00:18:43;;;;;;;14.73;11.18;;;;;;;12.14;66.13;94751.25;4217425;28;20404;-59
2023/05/06 00:20:45;;;;;;;16.75;11.07;;;;;;;12.16;66.05;94760.59;4223006;28;20538;-60
2023/05/06 00:22:46;;;;;;;14.93;11.95;;;;;;;12.16;66.16;94754.53;4217515;28;20319;-59
2023/05/06 00:24:48;;;;;;;15.43;11.30;;;;;;;12.12;65.92;94754.03;4219707;28;20071;-60
2023/05/06 00:26:49;;;;;;;13.77;11.18;;;;;;;12.08;66.05;94758.78;4222149;28;20066;-60
2023/05/06 00:28:51;;;;;;;13.65;11.27;;;;;;;12.09;65.96;94755.19;4224468;28;20062;-58
2023/05/06 00:30:53;;;;;;;15.23;11.57;;;;;;;12.10;66.04;94756.00;4215273;28;20040;-58
2023/05/06 00:32:54;;;;;;;15.40;11.75;;;;;;;12.07;65.82;94751.09;4215881;28;20198;-59
2023/05/06 00:34:56;;;;;;;12.95;11.55;;;;;;;12.06;66.10;94752.88;4222027;28;20458;-61
2023/05/06 00:36:58;;;;;;;12.32;10.55;;;;;;;12.08;66.02;94757.97;4212859;28;20051;-60
2023/05/06 00:38:59;;;;;;;13.75;11.27;;;;;;;12.13;65.87;94755.69;4222788;28;20051;-59
2023/05/06 00:41:02;;;;;;;15.07;11.63;;;;;;;12.12;65.71;94754.03;4222978;28;20594;-61
2023/05/06 00:43:04;;;;;;;15.27;11.05;;;;;;;12.13;65.83;94752.22;4216813;28;20457;-60
2023/05/06 00:45:24;;;;;;;12.07;10.82;;;;;;;12.10;65.81;94758.63;4216812;28;20097;-59
2023/05/06 00:47:26;;;;;;;12.45;11.13;;;;;;;12.09;65.63;94749.13;4206042;28;20052;-60
2023/05/06 00:49:28;;;;;;;13.10;11.30;;;;;;;12.12;65.72;94754.03;4215167;28;20234;-57
2023/05/06 00:51:30;;;;;;;16.40;11.35;;;;;;;12.11;65.82;94749.78;4225728;28;20082;-58
2023/05/06 00:53:32;;;;;;;13.13;11.55;;;;;;;12.09;65.72;94743.88;4215907;28;20044;-56
2023/05/06 00:55:33;;;;;;;16.13;11.20;;;;;;;12.09;66.06;94743.88;4216701;28;20039;-59
2023/05/06 00:57:35;;;;;;;15.13;10.85;;;;;;;12.12;65.88;94747.97;4223806;28;20048;-62
2023/05/06 00:59:37;;;;;;;11.98;10.05;;;;;;;12.10;65.74;94742.88;4216297;28;20154;-60
2023/05/06 01:01:39;;;;;;;14.32;10.88;;;;;;;12.06;65.99;94741.56;4209532;28;20052;-59
2023/05/06 01:03:40;;;;;;;12.90;10.65;;;;;;;12.02;65.87;94745.50;4223187;28;20051;-61
2023/05/06 01:05:54;;;;;;;14.27;11.60;;;;;;;12.02;66.22;94742.88;4224213;28;20052;-60
2023/05/06 01:08:01;;;;;;;13.98;11.38;;;;;;;12.04;66.22;94746.16;4223874;28;20079;-60
2023/05/06 01:10:21;;;;;;;14.18;11.32;;;;;;;12.04;65.73;94743.53;4214569;28;20094;-59
2023/05/06 01:12:49;;;;;;;13.95;11.43;;;;;;;12.00;66.15;94740.44;4203942;28;20493;-59
2023/05/06 01:15:15;;;;;;;13.45;10.82;;;;;;;12.01;66.21;94739.44;4232331;28;20047;-59
2023/05/06 01:17:18;;;;;;;14.23;11.55;;;;;;;12.00;66.18;94743.06;4215199;28;20044;-61
2023/05/06 01:19:33;;;;;;;17.13;13.68;;;;;;;11.82;66.31;94737.13;4220523;28;20044;-60
2023/05/06 01:21:36;;;;;;;13.60;11.65;;;;;;;11.71;67.04;94737.47;4222545;28;20047;-60
2023/05/06 01:23:56;;;;;;;16.02;12.38;;;;;;;11.52;67.46;94743.88;4215346;28;20048;-59
2023/05/06 01:25:58;;;;;;;15.50;11.75;;;;;;;11.08;68.56;94744.97;4220762;28;20511;-59
2023/05/06 01:28:00;;;;;;;15.02;12.00;;;;;;;10.91;69.32;94745.94;4219331;28;20059;-62
2023/05/06 01:30:02;;;;;;;14.13;12.52;;;;;;;10.88;69.83;94743.59;4228521;27;20101;-60
2023/05/06 01:32:28;;;;;;;17.90;12.32;;;;;;;10.99;69.77;94738.91;4204988;28;20092;-58
2023/05/06 01:34:40;;;;;;;13.43;11.73;;;;;;;11.08;69.08;94742.34;4229363;28;20051;-62
2023/05/06 01:37:00;;;;;;;16.40;11.45;;;;;;;11.14;68.62;94744.34;4225262;28;20079;-61
2023/05/06 01:39:08;;;;;;;11.93;10.60;;;;;;;11.22;68.20;94746.13;4201478;28;20487;-61
2023/05/06 01:41:14;;;;;;;11.40;9.93;;;;;;;11.21;68.06;94742.69;4222363;28;20052;-62
2023/05/06 01:43:17;;;;;;;12.73;10.43;;;;;;;11.17;68.19;94744.00;4223192;28;20047;-61
2023/05/06 01:45:19;;;;;;;13.25;11.15;;;;;;;11.16;68.44;94736.28;4220405;28;20579;-61
2023/05/06 01:47:22;;;;;;;15.02;11.30;;;;;;;11.12;68.40;94734.97;4219250;28;20060;-63
2023/05/06 01:49:24;;;;;;;13.18;10.95;;;;;;;11.15;68.10;94740.72;4218310;28;20066;-63
2023/05/06 01:51:27;;;;;;;12.18;10.15;;;;;;;11.17;68.08;94741.38;4221849;28;20051;-62
2023/05/06 01:53:28;;;;;;;14.30;11.30;;;;;;;11.18;68.07;94739.56;4212680;28;20098;-60
2023/05/06 01:55:31;;;;;;;12.90;11.00;;;;;;;11.22;68.02;94733.84;4214028;27;20044;-61
2023/05/06 01:57:32;;;;;;;12.02;10.52;;;;;;;11.26;67.68;94739.59;4212945;28;20047;-62
2023/05/06 01:59:34;;;;;;;12.55;11.25;;;;;;;11.30;67.63;94738.28;4216881;28;20129;-62
2023/05/06 02:01:35;;;;;;;12.27;10.88;;;;;;;11.30;67.32;94738.28;4219898;28;20056;-61
2023/05/06 02:03:37;;;;;;;11.93;10.60;;;;;;;11.33;67.53;94737.13;4216667;27;20131;-60
2023/05/06 02:05:39;;;;;;;13.38;10.13;;;;;;;11.36;67.42;94735.03;4224170;28;20058;-60
2023/05/06 02:07:40;;;;;;;11.80;9.93;;;;;;;11.38;67.31;94733.06;4222162;28;20079;-62
2023/05/06 02:09:42;;;;;;;11.57;10.38;;;;;;;11.39;67.31;94726.00;4229147;28;20048;-59
2023/05/06 02:11:44;;;;;;;13.32;10.60;;;;;;;11.40;66.96;94731.09;4227810;28;20426;-62
2023/05/06 02:13:45;;;;;;;12.98;10.38;;;;;;;11.43;66.96;94728.13;4226017;28;20075;-58
2023/05/06 02:15:54;;;;;;;11.85;10.60;;;;;;;11.41;66.79;94727.47;4216825;28;20047;-58
2023/05/06 02:17:56;;;;;;;12.85;11.50;;;;;;;11.43;67.22;94727.31;4228027;27;20524;-57
2023/05/06 02:19:58;;;;;;;12.98;10.68;;;;;;;11.44;67.08;94728.94;4227404;28;20479;-61
2023/05/06 02:21:59;;;;;;;11.70;10.50;;;;;;;11.45;66.91;94728.78;4217147;28;20048;-58
2023/05/06 02:24:01;;;;;;;14.10;10.45;;;;;;;11.45;66.96;94727.97;4228527;28;20079;-61
2023/05/06 02:26:03;;;;;;;13.73;11.48;;;;;;;11.45;66.84;94733.22;4228200;28;20047;-59
2023/05/06 02:28:04;;;;;;;12.98;11.07;;;;;;;11.44;66.84;94740.28;4215937;27;20378;-61
2023/05/06 02:30:06;;;;;;;12.52;10.68;;;;;;;11.39;66.80;94731.25;4228240;28;20054;-60
2023/05/06 02:32:08;;;;;;;13.55;10.63;;;;;;;11.39;66.84;94739.13;4214778;28;20040;-59
2023/05/06 02:34:10;;;;;;;12.95;10.82;;;;;;;11.38;66.97;94735.69;4222687;28;20122;-60
2023/05/06 02:36:11;;;;;;;13.05;10.98;;;;;;;11.36;66.71;94736.81;4226528;28;20059;-60
2023/05/06 02:38:13;;;;;;;14.32;10.45;;;;;;;11.36;66.55;94737.63;4226368;28;20088;-61
2023/05/06 02:40:15;;;;;;;14.02;10.50;;;;;;;11.39;66.58;94739.94;4217079;28;20044;-60
2023/05/06 02:42:16;;;;;;;11.95;10.23;;;;;;;11.41;66.43;94743.22;4217427;28;20062;-60
2023/05/06 02:44:18;;;;;;;12.60;11.25;;;;;;;11.35;66.74;94735.97;4217827;28;20052;-62
2023/05/06 02:46:20;;;;;;;12.30;10.43;;;;;;;11.29;66.68;94741.88;4218564;28;20164;-60
2023/05/06 02:48:22;;;;;;;14.65;10.63;;;;;;;11.27;67.04;94741.22;4211217;28;20105;-58
2023/05/06 02:50:24;;;;;;;13.13;11.27;;;;;;;11.24;67.00;94741.56;4215025;28;20063;-59
2023/05/06 02:52:25;;;;;;;12.95;10.70;;;;;;;11.25;67.11;94745.84;4217711;28;20047;-59
2023/05/06 02:54:27;;;;;;;15.52;10.48;;;;;;;11.26;66.89;94744.84;4221616;28;20490;-59
2023/05/06 02:56:30;;;;;;;12.77;10.63;;;;;;;11.23;67.08;94742.56;4211191;28;20426;-62
2023/05/06 02:58:31;;;;;;;13.77;11.35;;;;;;;11.24;67.13;94750.22;4212283;28;20048;-61
2023/05/06 03:00:33;;;;;;;16.73;11.23;;;;;;;11.26;67.15;94752.69;4219522;28;20047;-62
2023/05/06 03:02:35;;;;;;;14.05;10.93;;;;;;;11.25;66.84;94753.69;4209447;28;20036;-62
2023/05/06 03:04:36;;;;;;;12.68;10.90;;;;;;;11.21;67.13;94749.75;4211866;28;20044;-62
2023/05/06 03:06:38;;;;;;;12.88;10.23;;;;;;;11.19;66.95;94747.28;4221977;28;20070;-59
2023/05/06 03:08:40;;;;;;;13.57;10.63;;;;;;;11.22;67.18;94752.19;4221927;28;20039;-61
2023/05/06 03:10:42;;;;;;;13.00;10.40;;;;;;;11.21;67.03;94747.13;4219381;28;20091;-61
2023/05/06 03:12:43;;;;;;;16.05;10.77;;;;;;;11.21;66.95;94757.63;4219767;28;20115;-58
2023/05/06 03:14:45;;;;;;;11.90;10.35;;;;;;;11.23;66.91;94750.41;4223300;28;20551;-59
2023/05/06 03:16:46;;;;;;;13.30;10.70;;;;;;;11.17;66.79;94753.69;4220744;28;20086;-60
2023/05/06 03:18:48;;;;;;;11.70;10.45;;;;;;;11.22;67.25;94748.75;4218290;28;20130;-60
2023/05/06 03:20:50;;;;;;;15.45;11.07;;;;;;;11.18;67.11;94752.69;4217992;28;20582;-60
2023/05/06 03:22:52;;;;;;;13.80;10.88;;;;;;;11.23;67.28;94753.84;4212177;28;20113;-60
2023/05/06 03:24:53;;;;;;;14.05;10.15;;;;;;;11.27;66.91;94762.19;4217574;28;20040;-59
2023/05/06 03:26:57;;;;;;;12.32;10.95;;;;;;;11.21;66.95;94755.00;4212951;28;20106;-60
2023/05/06 03:28:58;;;;;;;14.70;10.93;;;;;;;11.16;67.35;94765.13;4218803;28;20047;-61
2023/05/06 03:31:00;;;;;;;16.17;11.50;;;;;;;11.17;67.20;94761.53;4212508;28;20105;-59
2023/05/06 03:33:02;;;;;;;13.05;11.38;;;;;;;11.20;67.33;94772.50;4222144;28;20414;-61
2023/05/06 03:35:05;;;;;;;15.43;10.43;;;;;;;11.24;67.30;94767.78;4225761;28;20043;-61
2023/05/06 03:37:07;;;;;;;11.75;10.43;;;;;;;11.27;66.88;94765.66;4226150;28;20048;-60
2023/05/06 03:39:09;;;;;;;15.63;11.00;;;;;;;11.27;66.98;94765.66;4225445;28;20090;-60
2023/05/06 03:41:10;;;;;;;14.77;11.32;;;;;;;11.31;67.07;94768.75;4226624;28;20403;-59
2023/05/06 03:43:12;;;;;;;13.10;11.00;;;;;;;11.30;66.98;94768.94;4226253;28;20048;-60
2023/05/06 03:45:14;;;;;;;13.07;10.75;;;;;;;11.32;66.74;94777.47;4228000;28;20118;-60
2023/05/06 03:47:16;;;;;;;13.43;10.20;;;;;;;11.35;66.78;94772.69;4226714;28;20066;-59
2023/05/06 03:49:19;;;;;;;12.80;10.88;;;;;;;11.39;66.57;94766.16;4224857;27;20154;-59
2023/05/06 03:51:21;;;;;;;17.15;10.95;;;;;;;11.43;66.83;94774.53;4220711;28;20829;-57
2023/05/06 03:53:22;;;;;;;13.23;10.35;;;;;;;11.42;66.40;94772.88;4215046;28;20083;-58
2023/05/06 03:55:24;;;;;;;12.50;10.38;;;;;;;11.45;66.52;94773.38;4227018;28;20059;-59
2023/05/06 03:57:26;;;;;;;12.18;10.88;;;;;;;11.47;66.34;94779.28;4218930;28;20421;-59
2023/05/06 03:59:27;;;;;;;13.18;10.30;;;;;;;11.48;66.30;94777.47;4211348;28;20450;-60
2023/05/06 04:01:29;;;;;;;17.30;10.85;;;;;;;11.47;66.29;94784.53;4210144;28;20040;-61
2023/05/06 04:03:30;;;;;;;14.68;10.00;;;;;;;11.46;66.22;94780.28;4215055;28;20039;-62
2023/05/06 04:05:32;;;;;;;12.98;10.35;;;;;;;11.48;66.48;94780.09;4218778;28;20090;-61
2023/05/06 04:07:34;;;;;;;20.27;11.45;;;;;;;11.52;66.70;94786.66;4217255;28;20040;-61
2023/05/06 04:09:36;;;;;;;14.88;10.98;;;;;;;11.57;66.86;94789.63;4220220;28;20087;-61
2023/05/06 04:11:37;;;;;;;16.98;10.48;;;;;;;11.63;66.91;94790.78;4221501;28;20051;-60
2023/05/06 04:13:39;;;;;;;14.98;11.35;;;;;;;11.64;66.22;94788.00;4218946;28;20069;-58
2023/05/06 04:15:41;;;;;;;18.20;11.48;;;;;;;11.67;66.41;94792.09;4222731;28;20741;-61
2023/05/06 04:17:43;;;;;;;17.67;12.35;;;;;;;11.35;66.92;94788.44;4219717;28;20090;-61
2023/05/06 04:19:44;;;;;;;14.88;11.45;;;;;;;11.13;67.59;94802.16;4221795;28;20043;-61
2023/05/06 04:21:46;;;;;;;15.73;11.10;;;;;;;11.17;68.27;94798.25;4214430;28;20385;-61
2023/05/06 04:23:48;;;;;;;12.48;10.45;;;;;;;11.35;68.03;94798.13;4214031;28;20043;-60
2023/05/06 04:25:50;;;;;;;12.55;10.10;;;;;;;11.55;67.57;94796.00;4213843;28;20043;-60
2023/05/06 04:27:52;;;;;;;13.00;10.07;;;;;;;11.75;66.79;94794.72;4224259;28;20127;-60
2023/05/06 04:29:53;;;;;;;14.65;10.07;;;;;;;11.93;66.27;94793.75;4216528;28;20066;-62
2023/05/06 04:31:55;;;;;;;11.40;9.98;;;;;;;12.06;65.51;94794.06;4216530;28;20044;-60
2023/05/06 04:33:57;;;;;;;15.85;9.82;;;;;;;12.17;65.20;94798.97;4225565;28;20040;-61
2023/05/06 04:35:59;;;;;;;12.93;9.95;;;;;;;12.27;65.01;94790.94;4226521;28;20112;-61
2023/05/06 04:38:01;;;;;;;13.27;9.38;;;;;;;12.39;64.51;94789.59;4226085;28;20052;-58
2023/05/06 04:40:03;;;;;;;14.35;9.13;;;;;;;12.47;64.20;94794.00;4223038;28;20052;-62
2023/05/06 04:42:05;;;;;;;15.32;10.02;;;;;;;12.53;64.04;94801.22;4211045;28;20048;-61
2023/05/06 04:44:06;;;;;;;12.70;9.70;;;;;;;12.58;63.82;94796.25;4210421;28;20081;-61
2023/05/06 04:46:09;;;;;;;11.18;9.52;;;;;;;12.62;64.05;94805.44;4210178;28;20117;-61
2023/05/06 04:48:11;;;;;;;12.07;9.75;;;;;;;12.65;63.86;94812.22;4221359;28;20044;-62
2023/05/06 04:50:12;;;;;;;11.43;9.90;;;;;;;12.72;63.30;94805.28;4214811;28;20458;-63
2023/05/06 04:52:14;;;;;;;12.82;9.82;;;;;;;12.77;63.20;94805.56;4211133;28;20055;-62
2023/05/06 04:54:16;;;;;;;13.70;11.05;;;;;;;12.76;63.05;94805.75;4227402;28;20050;-61
2023/05/06 04:56:17;;;;;;;13.10;9.52;;;;;;;12.80;63.07;94809.66;4226165;28;20082;-61
2023/05/06 04:58:19;;;;;;;11.90;9.30;;;;;;;12.91;62.89;94814.56;4221886;28;20143;-62
2023/05/06 05:00:21;;;;;;;11.90;9.32;;;;;;;12.99;62.79;94805.81;4222409;28;20426;-61
2023/05/06 05:02:23;;;;;;;11.98;10.18;;;;;;;13.10;62.52;94811.53;4218688;28;20055;-62
2023/05/06 05:04:25;;;;;;;11.75;9.65;;;;;;;13.14;62.17;94813.81;4222418;28;20036;-62
2023/05/06 05:06:26;;;;;;;10.80;9.48;;;;;;;13.28;62.19;94826.25;4222024;28;20077;-63
2023/05/06 05:08:28;;;;;;;12.30;9.27;;;;;;;13.44;61.53;94820.94;4222984;28;20043;-63
2023/05/06 05:10:30;;;;;;;10.27;8.65;;;;;;;13.58;60.78;94818.53;4225608;28;20047;-61
2023/05/06 05:12:31;;;;;;;9.63;8.63;;;;;;;13.68;60.61;94821.75;4223933;28;20081;-64
2023/05/06 05:14:33;;;;;;;11.45;8.95;;;;;;;13.72;60.32;94825.66;4201755;28;20421;-63
2023/05/06 05:16:35;;;;;;;11.38;8.43;;;;;;;13.76;60.38;94820.88;4225385;28;20086;-62
2023/05/06 05:18:36;;;;;;;11.80;8.63;;;;;;;13.92;59.96;94828.66;4225593;28;20456;-61
2023/05/06 05:20:38;;;;;;;12.32;8.77;;;;;;;14.10;59.79;94828.34;4222720;28;20048;-60
2023/05/06 05:22:40;;;;;;;10.52;8.02;;;;;;;14.17;59.17;94828.47;4217143;28;20122;-61
2023/05/06 05:24:41;;;;;;;8.88;7.75;;;;;;;14.04;58.55;94821.16;4223352;28;20397;-60
2023/05/06 05:26:43;;;;;;;12.45;8.68;;;;;;;14.02;58.58;94821.31;4219629;28;20532;-60
2023/05/06 05:28:45;;;;;;;9.18;7.88;;;;;;;13.66;58.53;94819.31;4217322;28;20153;-61
2023/05/06 05:30:46;;;;;;;9.18;7.80;;;;;;;13.19;60.36;94829.91;4216228;28;20045;-60
2023/05/06 05:32:48;;;;;;;13.48;9.02;;;;;;;13.04;61.05;94828.00;4223404;28;20055;-60
2023/05/06 05:34:50;;;;;;;12.45;9.95;;;;;;;12.87;61.76;94835.13;4212596;28;20402;-60
2023/05/06 05:36:51;;;;;;;11.75;9.77;;;;;;;12.83;62.15;94825.13;4212030;28;20092;-60
2023/05/06 05:38:53;;;;;;;12.60;10.75;;;;;;;12.78;62.28;94827.44;4226448;28;20420;-60
2023/05/06 05:40:55;;;;;;;12.38;10.48;;;;;;;12.75;62.51;94822.50;4226123;28;20083;-61
2023/05/06 05:42:56;;;;;;;13.52;10.40;;;;;;;12.93;62.33;94820.50;4223101;28;20047;-61
2023/05/06 05:44:58;;;;;;;10.90;9.77;;;;;;;13.02;61.94;94824.72;4225263;28;20075;-62
2023/05/06 05:47:01;;;;;;;14.68;10.43;;;;;;;13.17;61.89;94831.91;4224705;28;20051;-59
2023/05/06 05:49:02;;;;;;;16.50;11.02;;;;;;;13.27;62.09;94827.22;4225864;28;20064;-61
2023/05/06 05:51:04;;;;;;;13.40;9.35;;;;;;;13.39;61.67;94817.16;4222771;28;20079;-62
2023/05/06 05:53:06;;;;;;;11.20;9.50;;;;;;;13.43;61.17;94823.72;4221281;28;20040;-59
2023/05/06 05:55:08;;;;;;;13.07;9.68;;;;;;;13.47;61.15;94819.75;4213698;28;20109;-60
2023/05/06 05:57:10;;;;;;;11.82;9.55;;;;;;;13.51;60.66;94826.31;4216124;28;20469;-61
2023/05/06 05:59:11;;;;;;;15.00;10.07;;;;;;;13.23;61.27;94828.59;4226553;28;20052;-61
2023/05/06 06:01:13;;;;;;;12.65;9.82;;;;;;;12.92;62.20;94829.34;4220802;28;20056;-61
2023/05/06 06:03:16;;;;;;;13.77;10.55;;;;;;;12.90;62.72;94828.69;4213678;28;20052;-60
2023/05/06 06:05:18;;;;;;;14.68;10.75;;;;;;;12.97;62.38;94831.47;4220953;28;20055;-62
2023/05/06 06:07:20;;;;;;;15.88;10.50;;;;;;;12.94;62.93;94831.81;4217057;28;20139;-61
2023/05/06 06:09:21;;;;;;;19.42;11.23;;;;;;;12.96;62.77;94838.53;4217216;28;20066;-62
2023/05/06 06:11:25;;;;;;;14.98;11.23;;;;;;;12.99;63.02;94835.59;4207578;28;20391;-62
2023/05/06 06:13:27;;;;;;;16.83;11.15;;;;;;;13.14;62.90;94837.47;4222897;28;20184;-63
2023/05/06 06:15:30;;;;;;;18.20;11.23;;;;;;;13.28;62.25;94844.66;4219660;28;20050;-61
2023/05/06 06:17:32;;;;;;;16.15;11.50;;;;;;;13.36;61.85;94836.75;4221442;28;20175;-61
2023/05/06 06:19:33;;;;;;;16.08;12.10;;;;;;;13.28;61.79;94840.25;4224705;27;20128;-63
2023/05/06 06:21:35;;;;;;;18.40;11.65;;;;;;;13.29;62.31;94841.06;4227412;28;20040;-59
2023/05/06 06:23:37;;;;;;;14.43;11.32;;;;;;;13.29;62.54;94843.69;4222274;28;20040;-59
2023/05/06 06:25:38;;;;;;;13.25;11.05;;;;;;;13.36;62.54;94841.19;4222719;28;20405;-61
2023/05/06 06:27:40;;;;;;;15.85;10.43;;;;;;;13.44;62.40;94836.72;4227477;28;20135;-59
2023/05/06 06:29:42;;;;;;;17.15;10.93;;;;;;;13.39;61.74;94844.28;4229816;28;20047;-62
2023/05/06 06:31:43;;;;;;;13.18;11.00;;;;;;;13.29;62.08;94838.41;4224464;28;20055;-62
2023/05/06 06:33:45;;;;;;;21.25;11.88;;;;;;;13.16;62.46;94835.50;4221434;28;20040;-63
2023/05/06 06:35:46;;;;;;;14.25;11.15;;;;;;;13.28;62.95;94836.75;4227406;28;20048;-63
2023/05/06 06:37:48;;;;;;;18.63;10.48;;;;;;;13.28;62.32;94831.50;4218434;28;20093;-62
2023/05/06 06:39:50;;;;;;;13.25;10.60;;;;;;;13.30;62.43;94840.06;4218083;28;20234;-61
2023/05/06 06:41:55;;;;;;;16.92;11.15;;;;;;;13.22;62.77;94840.06;4217385;28;20130;-62
2023/05/06 06:43:57;;;;;;;13.38;10.05;;;;;;;13.38;62.37;94839.19;4220326;28;20039;-65
2023/05/06 06:45:59;;;;;;;16.13;10.57;;;;;;;13.45;62.32;94840.16;4212901;28;20440;-62
2023/05/06 06:48:00;;;;;;;15.50;10.30;;;;;;;13.59;62.33;94842.03;4220114;28;20105;-64
2023/05/06 06:50:02;;;;;;;14.73;10.38;;;;;;;13.77;61.81;94848.88;4222094;28;20051;-62
2023/05/06 06:52:04;;;;;;;13.10;10.05;;;;;;;13.91;61.23;94837.56;4211530;28;20083;-64
2023/05/06 06:54:06;;;;;;;15.95;10.45;;;;;;;14.05;61.13;94842.06;4222978;28;20427;-63
2023/05/06 06:56:11;;;;;;;13.35;10.65;;;;;;;14.14;60.41;94848.09;4216713;28;20444;-61
2023/05/06 06:58:12;;;;;;;16.27;10.45;;;;;;;14.21;60.36;94853.47;4222905;28;20101;-62
2023/05/06 07:00:14;;;;;;;12.70;9.38;;;;;;;14.23;59.97;94844.38;4226715;28;20060;-64
2023/05/06 07:02:16;;;;;;;17.27;9.73;;;;;;;14.26;59.96;94856.38;4212045;28;20097;-61
2023/05/06 07:04:18;;;;;;;13.60;10.55;;;;;;;14.30;59.90;94852.38;4224875;28;20547;-64
2023/05/06 07:06:19;;;;;;;12.85;10.02;;;;;;;14.30;60.22;94850.59;4214659;28;20066;-63
2023/05/06 07:08:21;;;;;;;12.73;10.23;;;;;;;14.40;60.12;94860.06;4215332;28;20177;-59
2023/05/06 07:10:23;;;;;;;11.43;9.98;;;;;;;14.46;59.55;94861.97;4214349;28;20127;-59
2023/05/06 07:12:25;;;;;;;13.00;9.60;;;;;;;14.25;59.51;94855.56;4211045;28;20067;-61
2023/05/06 07:14:27;;;;;;;18.80;12.23;;;;;;;14.28;60.04;94857.84;4211722;28;20055;-61
2023/05/06 07:16:28;;;;;;;21.42;13.20;;;;;;;14.34;59.96;94859.75;4211734;28;20044;-61
2023/05/06 07:18:30;;;;;;;13.45;10.05;;;;;;;14.52;60.16;94861.28;4212355;28;20082;-61
2023/05/06 07:20:32;;;;;;;12.75;9.60;;;;;;;14.70;59.68;94860.94;4221485;28;20282;-61
2023/05/06 07:22:33;;;;;;;11.35;9.05;;;;;;;14.85;58.95;94868.88;4226707;28;20075;-62
2023/05/06 07:24:35;;;;;;;13.10;9.13;;;;;;;14.89;58.61;94865.69;4226003;28;20101;-62
2023/05/06 07:26:37;;;;;;;11.75;8.77;;;;;;;14.99;58.34;94870.69;4227504;28;20120;-62
2023/05/06 07:28:38;;;;;;;9.93;8.50;;;;;;;15.09;58.50;94871.22;4227694;28;20043;-60
2023/05/06 07:30:40;;;;;;;8.35;7.45;;;;;;;15.08;57.89;94874.88;4224729;28;20116;-59
2023/05/06 07:32:42;;;;;;;10.13;8.20;;;;;;;15.03;57.83;94868.50;4224406;28;20047;-62
2023/05/06 07:34:44;;;;;;;10.90;8.70;;;;;;;15.15;58.16;94867.88;4229156;28;20043;-60
2023/05/06 07:36:45;;;;;;;13.30;8.32;;;;;;;15.26;57.29;94871.84;4212393;28;20044;-60
2023/05/06 07:38:47;;;;;;;10.23;7.80;;;;;;;15.44;57.77;94874.09;4228248;28;20101;-62
2023/05/06 07:40:50;;;;;;;11.00;8.32;;;;;;;15.48;56.71;94867.44;4227901;28;20092;-58
2023/05/06 07:42:51;;;;;;;10.85;8.13;;;;;;;15.26;56.90;94865.78;4214610;28;20051;-61
2023/05/06 07:44:53;;;;;;;11.25;8.23;;;;;;;15.19;57.38;94854.31;4214810;28;20044;-59
2023/05/06 07:46:55;;;;;;;14.82;8.55;;;;;;;15.06;57.47;94862.88;4227142;28;20055;-59
2023/05/06 07:48:56;;;;;;;12.88;8.88;;;;;;;15.17;57.75;94857.13;4217403;28;20139;-62
2023/05/06 07:50:58;;;;;;;9.65;8.23;;;;;;;15.41;57.19;94863.13;4210516;28;20647;-61
2023/05/06 07:53:00;;;;;;;12.20;9.10;;;;;;;15.70;57.05;94862.22;4202399;28;20094;-60
2023/05/06 07:55:03;;;;;;;10.27;8.38;;;;;;;15.80;56.21;94861.97;4225744;28;20055;-59
2023/05/06 07:57:04;;;;;;;13.10;8.80;;;;;;;15.86;56.19;94869.94;4216121;28;20056;-61
2023/05/06 07:59:06;;;;;;;13.70;8.43;;;;;;;15.64;55.86;94868.22;4215122;28;20086;-62
2023/05/06 08:01:08;;;;;;;9.80;7.80;;;;;;;15.87;56.58;94866.28;4214596;28;20095;-62
2023/05/06 08:03:09;;;;;;;11.52;6.95;;;;;;;15.80;55.96;94865.41;4216147;28;20048;-62
2023/05/06 08:05:12;;;;;;;9.95;7.18;;;;;;;15.26;56.79;94856.03;4222769;28;20652;-60
2023/05/06 08:07:14;;;;;;;8.52;7.45;;;;;;;15.29;56.99;94860.94;4223567;28;20051;-59
2023/05/06 08:09:16;;;;;;;13.00;8.82;;;;;;;15.59;56.85;94860.06;4218910;28;20509;-60
2023/05/06 08:11:23;;;;;;;31.92;19.70;;;;;;;15.98;56.26;94867.63;4208879;28;20542;-60
2023/05/06 08:13:25;;;;;;;12.50;9.07;;;;;;;16.33;55.80;94857.19;4221554;28;20055;-61
2023/05/06 08:15:27;;;;;;;9.88;7.65;;;;;;;16.39;54.73;94861.72;4218979;28;20539;-62
2023/05/06 08:17:29;;;;;;;8.32;7.25;;;;;;;15.95;55.38;94863.53;4210413;28;20083;-60
2023/05/06 08:19:30;;;;;;;10.43;7.70;;;;;;;15.52;56.58;94860.00;4215834;28;20053;-61
2023/05/06 08:21:32;;;;;;;9.10;7.45;;;;;;;15.27;57.46;94865.59;4214545;28;20081;-61
2023/05/06 08:23:34;;;;;;;8.45;7.43;;;;;;;15.34;57.67;94866.50;4227303;28;20043;-61
2023/05/06 08:25:35;;;;;;;9.68;6.80;;;;;;;15.01;57.88;94862.59;4228205;28;20055;-59
2023/05/06 08:27:37;;;;;;;10.23;7.25;;;;;;;15.13;57.87;94869.88;4226119;28;20051;-61
2023/05/06 08:29:39;;;;;;;9.05;6.85;;;;;;;15.51;56.91;94868.94;4227510;28;20079;-61
2023/05/06 08:31:41;;;;;;;11.32;6.40;;;;;;;15.59;56.51;94865.34;4219087;28;20043;-60
2023/05/06 08:33:43;;;;;;;9.40;6.40;;;;;;;15.67;57.07;94867.88;4225744;28;20048;-60
2023/05/06 08:35:45;;;;;;;7.35;6.30;;;;;;;15.87;55.59;94865.47;4225917;28;20047;-61
2023/05/06 08:37:47;;;;;;;7.68;6.32;;;;;;;15.99;55.12;94868.47;4214226;28;20052;-61
2023/05/06 08:39:49;;;;;;;9.98;6.55;;;;;;;15.63;55.93;94870.06;4224321;28;20047;-60
2023/05/06 08:41:51;;;;;;;10.60;6.80;;;;;;;16.04;55.02;94863.41;4226408;28;20043;-59
2023/05/06 08:43:53;;;;;;;6.57;5.82;;;;;;;15.92;54.97;94865.75;4225140;28;20629;-62
2023/05/06 08:45:55;;;;;;;8.35;5.93;;;;;;;15.96;54.98;94874.94;4226294;28;20067;-61
2023/05/06 08:47:57;;;;;;;7.40;6.25;;;;;;;16.01;54.80;94869.91;4212007;28;20511;-62
2023/05/06 08:50:00;;;;;;;8.57;6.65;;;;;;;16.20;54.62;94871.09;4226642;28;20462;-61
2023/05/06 08:52:05;;;;;;;11.20;6.13;;;;;;;16.24;54.59;94872.34;4225669;28;20044;-59
2023/05/06 08:54:07;;;;;;;10.40;6.40;;;;;;;16.03;55.10;94870.53;4215439;28;20044;-58
2023/05/06 08:56:12;;;;;;;7.55;5.80;;;;;;;16.03;55.08;94861.78;4213312;28;20058;-62
2023/05/06 08:58:15;;;;;;;10.13;6.15;;;;;;;16.22;55.09;94865.59;4207241;28;20040;-60
2023/05/06 09:00:17;;;;;;;9.75;6.40;;;;;;;16.57;53.90;94864.69;4217606;28;20638;-62
2023/05/06 09:02:21;;;;;;;11.05;6.32;;;;;;;16.63;53.50;94862.28;4213006;28;20043;-62
2023/05/06 09:04:22;;;;;;;;;;;;;;;16.24;53.96;94861.78;4214216;28;20040;-62
2023/05/06 09:06:24;;;;;;;9.35;5.43;;;;;;;16.45;53.61;94849.53;4215994;28;19928;-60
2023/05/06 09:08:26;;;;;;;18.83;14.15;;;;;;;16.88;52.48;94847.63;4216230;28;20386;-60
2023/05/06 09:10:32;;;;;;;9.50;5.30;;;;;;;16.78;51.87;94847.94;4221100;28;20048;-60
2023/05/06 09:12:36;;;;;;;10.73;4.80;;;;;;;16.73;52.15;94837.13;4214718;28;20069;-61
2023/05/06 09:14:39;;;;;;;7.25;5.22;;;;;;;16.69;51.97;94832.41;4217730;28;20055;-61
2023/05/06 09:16:42;;;;;;;9.27;5.05;;;;;;;16.90;51.59;94831.56;4211554;28;20044;-59
2023/05/06 09:18:44;;;;;;;6.47;4.97;;;;;;;16.76;51.94;94834.09;4219871;28;20048;-61
2023/05/06 09:20:47;;;;;;;6.70;4.95;;;;;;;17.19;51.28;94831.31;4218403;28;20140;-61
2023/05/06 09:22:49;;;;;;;6.90;4.50;;;;;;;17.53;49.51;94829.63;4211635;28;20052;-62
2023/05/06 09:24:55;;;;;;;7.07;4.68;;;;;;;17.66;48.76;94830.66;4222951;28;20476;-58
2023/05/06 09:26:57;;;;;;;6.15;4.30;;;;;;;17.81;49.04;94818.91;4212824;28;20109;-57